sensor_id;sensor_type;location;lat;lon;timestamp;P1;durP1;ratioP1;P2;durP2;ratioP2
42726;SDS011;28372;56.832;60.658;2024-03-08T00:00:29;3.63;;;1.80;;
42726;SDS011;28372;56.832;60.658;2024-03-08T00:03:00;3.38;;;1.35;;
42726;SDS011;28372;56.832;60.658;2024-03-08T00:05:31;3.20;;;1.75;;
42726;SDS011;28372;56.832;60.658;2024-03-08T00:07:59;3.60;;;1.55;;
42726;SDS011;28372;56.832;60.658;2024-03-08T00:10:30;3.90;;;1.50;;
42726;SDS011;28372;56.832;60.658;2024-03-08T00:12:58;4.75;;;1.42;;
42726;SDS011;28372;56.832;60.658;2024-03-08T00:15:32;3.58;;;1.85;;
42726;SDS011;28372;56.832;60.658;2024-03-08T00:18:03;3.95;;;1.50;;
42726;SDS011;28372;56.832;60.658;2024-03-08T00:20:33;3.95;;;1.65;;
42726;SDS011;28372;56.832;60.658;2024-03-08T00:23:05;4.85;;;1.80;;
42726;SDS011;28372;56.832;60.658;2024-03-08T00:25:41;3.95;;;1.60;;
42726;SDS011;28372;56.832;60.658;2024-03-08T00:28:13;3.30;;;1.40;;
42726;SDS011;28372;56.832;60.658;2024-03-08T00:30:42;3.60;;;1.90;;
42726;SDS011;28372;56.832;60.658;2024-03-08T00:33:13;4.38;;;1.58;;
42726;SDS011;28372;56.832;60.658;2024-03-08T00:35:41;5.63;;;1.50;;
42726;SDS011;28372;56.832;60.658;2024-03-08T00:38:09;4.25;;;1.77;;
42726;SDS011;28372;56.832;60.658;2024-03-08T00:40:40;3.65;;;1.58;;
42726;SDS011;28372;56.832;60.658;2024-03-08T00:43:09;3.80;;;1.70;;
42726;SDS011;28372;56.832;60.658;2024-03-08T00:45:36;6.85;;;2.00;;
42726;SDS011;28372;56.832;60.658;2024-03-08T00:48:04;5.78;;;1.50;;
42726;SDS011;28372;56.832;60.658;2024-03-08T00:50:33;3.03;;;1.40;;
42726;SDS011;28372;56.832;60.658;2024-03-08T00:53:03;3.90;;;1.75;;
42726;SDS011;28372;56.832;60.658;2024-03-08T00:55:38;4.40;;;1.60;;
42726;SDS011;28372;56.832;60.658;2024-03-08T00:58:07;2.85;;;1.45;;
42726;SDS011;28372;56.832;60.658;2024-03-08T01:00:36;4.03;;;1.70;;
42726;SDS011;28372;56.832;60.658;2024-03-08T01:03:12;3.67;;;1.65;;
42726;SDS011;28372;56.832;60.658;2024-03-08T01:05:40;3.63;;;1.70;;
42726;SDS011;28372;56.832;60.658;2024-03-08T01:08:12;4.97;;;1.70;;
42726;SDS011;28372;56.832;60.658;2024-03-08T01:10:42;6.32;;;2.00;;
42726;SDS011;28372;56.832;60.658;2024-03-08T01:13:10;3.55;;;1.77;;
42726;SDS011;28372;56.832;60.658;2024-03-08T01:15:38;4.30;;;1.80;;
42726;SDS011;28372;56.832;60.658;2024-03-08T01:18:08;5.07;;;1.83;;
42726;SDS011;28372;56.832;60.658;2024-03-08T01:20:37;5.57;;;1.80;;
42726;SDS011;28372;56.832;60.658;2024-03-08T01:23:05;4.82;;;1.80;;
42726;SDS011;28372;56.832;60.658;2024-03-08T01:25:34;3.08;;;1.50;;
42726;SDS011;28372;56.832;60.658;2024-03-08T01:28:02;4.00;;;1.83;;
42726;SDS011;28372;56.832;60.658;2024-03-08T01:30:29;3.65;;;1.27;;
42726;SDS011;28372;56.832;60.658;2024-03-08T01:33:00;4.10;;;1.80;;
42726;SDS011;28372;56.832;60.658;2024-03-08T01:35:28;3.47;;;1.55;;
42726;SDS011;28372;56.832;60.658;2024-03-08T01:37:55;4.05;;;1.80;;
42726;SDS011;28372;56.832;60.658;2024-03-08T01:40:23;4.30;;;1.67;;
42726;SDS011;28372;56.832;60.658;2024-03-08T01:42:51;4.32;;;1.58;;
42726;SDS011;28372;56.832;60.658;2024-03-08T01:45:20;3.83;;;1.85;;
42726;SDS011;28372;56.832;60.658;2024-03-08T01:47:47;4.55;;;1.48;;
42726;SDS011;28372;56.832;60.658;2024-03-08T01:50:15;3.72;;;1.67;;
42726;SDS011;28372;56.832;60.658;2024-03-08T01:52:43;3.28;;;1.75;;
42726;SDS011;28372;56.832;60.658;2024-03-08T01:55:12;4.78;;;1.58;;
42726;SDS011;28372;56.832;60.658;2024-03-08T01:57:46;3.58;;;1.48;;
42726;SDS011;28372;56.832;60.658;2024-03-08T02:00:14;4.40;;;1.77;;
42726;SDS011;28372;56.832;60.658;2024-03-08T02:02:43;4.78;;;1.83;;
42726;SDS011;28372;56.832;60.658;2024-03-08T02:05:14;3.00;;;1.60;;
42726;SDS011;28372;56.832;60.658;2024-03-08T02:07:42;6.03;;;1.80;;
42726;SDS011;28372;56.832;60.658;2024-03-08T02:10:11;4.25;;;1.88;;
42726;SDS011;28372;56.832;60.658;2024-03-08T02:12:39;4.68;;;1.98;;
42726;SDS011;28372;56.832;60.658;2024-03-08T02:15:07;3.47;;;1.70;;
42726;SDS011;28372;56.832;60.658;2024-03-08T02:17:35;5.47;;;1.90;;
42726;SDS011;28372;56.832;60.658;2024-03-08T02:20:03;3.35;;;1.48;;
42726;SDS011;28372;56.832;60.658;2024-03-08T02:22:32;6.15;;;1.90;;
42726;SDS011;28372;56.832;60.658;2024-03-08T02:25:00;3.70;;;1.77;;
42726;SDS011;28372;56.832;60.658;2024-03-08T02:27:30;3.63;;;1.90;;
42726;SDS011;28372;56.832;60.658;2024-03-08T02:29:58;3.00;;;1.70;;
42726;SDS011;28372;56.832;60.658;2024-03-08T02:32:27;4.55;;;1.83;;
42726;SDS011;28372;56.832;60.658;2024-03-08T02:34:58;4.65;;;2.10;;
42726;SDS011;28372;56.832;60.658;2024-03-08T02:37:29;3.45;;;2.00;;
42726;SDS011;28372;56.832;60.658;2024-03-08T02:39:57;3.08;;;1.48;;
42726;SDS011;28372;56.832;60.658;2024-03-08T02:42:24;3.75;;;1.65;;
42726;SDS011;28372;56.832;60.658;2024-03-08T02:44:52;4.65;;;1.85;;
42726;SDS011;28372;56.832;60.658;2024-03-08T02:47:20;5.13;;;1.85;;
42726;SDS011;28372;56.832;60.658;2024-03-08T02:49:51;3.95;;;1.77;;
42726;SDS011;28372;56.832;60.658;2024-03-08T02:52:19;5.03;;;2.00;;
42726;SDS011;28372;56.832;60.658;2024-03-08T02:54:48;4.55;;;2.13;;
42726;SDS011;28372;56.832;60.658;2024-03-08T02:57:16;5.13;;;2.22;;
42726;SDS011;28372;56.832;60.658;2024-03-08T02:59:45;6.78;;;2.22;;
42726;SDS011;28372;56.832;60.658;2024-03-08T03:02:13;5.97;;;2.22;;
42726;SDS011;28372;56.832;60.658;2024-03-08T03:04:40;6.28;;;2.20;;
42726;SDS011;28372;56.832;60.658;2024-03-08T03:07:08;4.18;;;1.60;;
42726;SDS011;28372;56.832;60.658;2024-03-08T03:09:36;3.78;;;1.67;;
42726;SDS011;28372;56.832;60.658;2024-03-08T03:12:04;4.45;;;1.70;;
42726;SDS011;28372;56.832;60.658;2024-03-08T03:14:31;4.22;;;1.80;;
42726;SDS011;28372;56.832;60.658;2024-03-08T03:17:00;4.47;;;1.83;;
42726;SDS011;28372;56.832;60.658;2024-03-08T03:19:29;3.92;;;2.00;;
42726;SDS011;28372;56.832;60.658;2024-03-08T03:21:57;4.95;;;1.85;;
42726;SDS011;28372;56.832;60.658;2024-03-08T03:24:25;5.78;;;2.20;;
42726;SDS011;28372;56.832;60.658;2024-03-08T03:26:56;9.32;;;1.92;;
42726;SDS011;28372;56.832;60.658;2024-03-08T03:29:24;4.75;;;2.10;;
42726;SDS011;28372;56.832;60.658;2024-03-08T03:31:52;4.93;;;1.90;;
42726;SDS011;28372;56.832;60.658;2024-03-08T03:34:22;6.22;;;2.13;;
42726;SDS011;28372;56.832;60.658;2024-03-08T03:36:50;5.78;;;1.98;;
42726;SDS011;28372;56.832;60.658;2024-03-08T03:39:18;7.13;;;2.15;;
42726;SDS011;28372;56.832;60.658;2024-03-08T03:41:47;5.88;;;2.33;;
42726;SDS011;28372;56.832;60.658;2024-03-08T03:44:16;7.15;;;1.98;;
42726;SDS011;28372;56.832;60.658;2024-03-08T03:46:43;10.23;;;2.50;;
42726;SDS011;28372;56.832;60.658;2024-03-08T03:49:11;5.97;;;1.90;;
42726;SDS011;28372;56.832;60.658;2024-03-08T03:51:40;8.98;;;2.20;;
42726;SDS011;28372;56.832;60.658;2024-03-08T03:54:07;6.25;;;2.05;;
42726;SDS011;28372;56.832;60.658;2024-03-08T03:56:35;11.85;;;2.70;;
42726;SDS011;28372;56.832;60.658;2024-03-08T03:59:03;13.68;;;3.53;;
42726;SDS011;28372;56.832;60.658;2024-03-08T04:01:31;15.18;;;2.70;;
42726;SDS011;28372;56.832;60.658;2024-03-08T04:04:02;6.72;;;2.40;;
42726;SDS011;28372;56.832;60.658;2024-03-08T04:06:30;10.75;;;2.83;;
42726;SDS011;28372;56.832;60.658;2024-03-08T04:08:58;17.10;;;3.20;;
42726;SDS011;28372;56.832;60.658;2024-03-08T04:11:26;12.60;;;2.97;;
42726;SDS011;28372;56.832;60.658;2024-03-08T04:13:53;5.13;;;2.05;;
42726;SDS011;28372;56.832;60.658;2024-03-08T04:16:21;9.73;;;2.42;;
42726;SDS011;28372;56.832;60.658;2024-03-08T04:18:49;10.02;;;2.70;;
42726;SDS011;28372;56.832;60.658;2024-03-08T04:21:17;7.78;;;2.50;;
42726;SDS011;28372;56.832;60.658;2024-03-08T04:23:46;7.40;;;2.97;;
42726;SDS011;28372;56.832;60.658;2024-03-08T04:26:13;5.07;;;2.40;;
42726;SDS011;28372;56.832;60.658;2024-03-08T04:28:45;9.38;;;2.60;;
42726;SDS011;28372;56.832;60.658;2024-03-08T04:31:13;6.35;;;2.60;;
42726;SDS011;28372;56.832;60.658;2024-03-08T04:33:42;5.75;;;2.28;;
42726;SDS011;28372;56.832;60.658;2024-03-08T04:36:11;6.78;;;2.58;;
42726;SDS011;28372;56.832;60.658;2024-03-08T04:38:40;12.05;;;3.28;;
42726;SDS011;28372;56.832;60.658;2024-03-08T04:41:08;6.68;;;2.33;;
42726;SDS011;28372;56.832;60.658;2024-03-08T04:43:37;7.28;;;2.30;;
42726;SDS011;28372;56.832;60.658;2024-03-08T04:46:05;7.72;;;2.63;;
42726;SDS011;28372;56.832;60.658;2024-03-08T04:48:32;5.22;;;2.17;;
42726;SDS011;28372;56.832;60.658;2024-03-08T04:51:18;13.73;;;2.85;;
42726;SDS011;28372;56.832;60.658;2024-03-08T04:53:46;5.85;;;2.42;;
42726;SDS011;28372;56.832;60.658;2024-03-08T04:56:14;6.07;;;2.30;;
42726;SDS011;28372;56.832;60.658;2024-03-08T04:58:45;5.97;;;2.28;;
42726;SDS011;28372;56.832;60.658;2024-03-08T05:01:16;7.22;;;2.50;;
42726;SDS011;28372;56.832;60.658;2024-03-08T05:03:44;5.45;;;2.20;;
42726;SDS011;28372;56.832;60.658;2024-03-08T05:06:12;5.20;;;2.25;;
42726;SDS011;28372;56.832;60.658;2024-03-08T05:08:40;5.00;;;2.38;;
42726;SDS011;28372;56.832;60.658;2024-03-08T05:11:08;5.70;;;2.53;;
42726;SDS011;28372;56.832;60.658;2024-03-08T05:13:36;4.78;;;2.42;;
42726;SDS011;28372;56.832;60.658;2024-03-08T05:16:04;10.80;;;2.80;;
42726;SDS011;28372;56.832;60.658;2024-03-08T05:18:32;8.63;;;2.83;;
42726;SDS011;28372;56.832;60.658;2024-03-08T05:21:00;8.10;;;2.67;;
42726;SDS011;28372;56.832;60.658;2024-03-08T05:23:31;6.78;;;3.00;;
42726;SDS011;28372;56.832;60.658;2024-03-08T05:25:58;6.82;;;2.90;;
42726;SDS011;28372;56.832;60.658;2024-03-08T05:28:26;7.30;;;3.10;;
42726;SDS011;28372;56.832;60.658;2024-03-08T05:30:54;13.25;;;3.70;;
42726;SDS011;28372;56.832;60.658;2024-03-08T05:33:23;8.65;;;3.40;;
42726;SDS011;28372;56.832;60.658;2024-03-08T05:35:51;7.78;;;3.15;;
42726;SDS011;28372;56.832;60.658;2024-03-08T05:38:19;6.13;;;2.83;;
42726;SDS011;28372;56.832;60.658;2024-03-08T05:40:48;9.85;;;2.67;;
42726;SDS011;28372;56.832;60.658;2024-03-08T05:43:16;16.85;;;3.50;;
42726;SDS011;28372;56.832;60.658;2024-03-08T05:45:46;6.70;;;2.80;;
42726;SDS011;28372;56.832;60.658;2024-03-08T05:48:14;7.38;;;2.80;;
42726;SDS011;28372;56.832;60.658;2024-03-08T05:50:43;7.03;;;2.90;;
42726;SDS011;28372;56.832;60.658;2024-03-08T05:53:11;6.95;;;2.78;;
42726;SDS011;28372;56.832;60.658;2024-03-08T05:55:38;7.40;;;2.70;;
42726;SDS011;28372;56.832;60.658;2024-03-08T05:58:06;8.25;;;3.30;;
42726;SDS011;28372;56.832;60.658;2024-03-08T06:00:35;5.97;;;2.97;;
42726;SDS011;28372;56.832;60.658;2024-03-08T06:03:03;8.07;;;3.00;;
42726;SDS011;28372;56.832;60.658;2024-03-08T06:05:31;6.63;;;2.83;;
42726;SDS011;28372;56.832;60.658;2024-03-08T06:07:59;7.25;;;3.13;;
42726;SDS011;28372;56.832;60.658;2024-03-08T06:10:27;9.05;;;2.70;;
42726;SDS011;28372;56.832;60.658;2024-03-08T06:12:55;6.80;;;2.75;;
42726;SDS011;28372;56.832;60.658;2024-03-08T06:15:23;5.22;;;2.20;;
42726;SDS011;28372;56.832;60.658;2024-03-08T06:17:51;8.45;;;3.10;;
42726;SDS011;28372;56.832;60.658;2024-03-08T06:20:21;7.13;;;2.80;;
42726;SDS011;28372;56.832;60.658;2024-03-08T06:22:59;6.32;;;2.67;;
42726;SDS011;28372;56.832;60.658;2024-03-08T06:25:35;6.50;;;3.25;;
42726;SDS011;28372;56.832;60.658;2024-03-08T06:28:03;9.10;;;2.70;;
42726;SDS011;28372;56.832;60.658;2024-03-08T06:30:40;7.95;;;2.95;;
42726;SDS011;28372;56.832;60.658;2024-03-08T06:33:09;5.05;;;2.28;;
42726;SDS011;28372;56.832;60.658;2024-03-08T06:35:38;6.05;;;2.35;;
42726;SDS011;28372;56.832;60.658;2024-03-08T06:38:05;6.63;;;2.80;;
42726;SDS011;28372;56.832;60.658;2024-03-08T06:40:36;6.10;;;2.80;;
42726;SDS011;28372;56.832;60.658;2024-03-08T06:43:04;11.48;;;2.90;;
42726;SDS011;28372;56.832;60.658;2024-03-08T06:45:33;8.30;;;3.10;;
42726;SDS011;28372;56.832;60.658;2024-03-08T06:48:04;8.43;;;2.70;;
42726;SDS011;28372;56.832;60.658;2024-03-08T06:50:36;11.27;;;2.80;;
42726;SDS011;28372;56.832;60.658;2024-03-08T06:53:04;9.07;;;2.67;;
42726;SDS011;28372;56.832;60.658;2024-03-08T06:55:33;11.07;;;3.00;;
42726;SDS011;28372;56.832;60.658;2024-03-08T06:58:01;10.82;;;2.75;;
42726;SDS011;28372;56.832;60.658;2024-03-08T07:00:31;5.85;;;2.85;;
42726;SDS011;28372;56.832;60.658;2024-03-08T07:03:03;10.00;;;2.75;;
42726;SDS011;28372;56.832;60.658;2024-03-08T07:05:34;8.52;;;2.95;;
42726;SDS011;28372;56.832;60.658;2024-03-08T07:08:02;6.35;;;3.17;;
42726;SDS011;28372;56.832;60.658;2024-03-08T07:10:30;6.10;;;2.90;;
42726;SDS011;28372;56.832;60.658;2024-03-08T07:12:58;7.40;;;2.50;;
42726;SDS011;28372;56.832;60.658;2024-03-08T07:15:29;6.53;;;2.75;;
42726;SDS011;28372;56.832;60.658;2024-03-08T07:17:56;6.85;;;2.50;;
42726;SDS011;28372;56.832;60.658;2024-03-08T07:20:26;9.32;;;3.00;;
42726;SDS011;28372;56.832;60.658;2024-03-08T07:22:55;14.38;;;3.92;;
42726;SDS011;28372;56.832;60.658;2024-03-08T07:25:23;11.32;;;3.30;;
42726;SDS011;28372;56.832;60.658;2024-03-08T07:27:51;4.43;;;2.30;;
42726;SDS011;28372;56.832;60.658;2024-03-08T07:30:21;9.73;;;2.67;;
42726;SDS011;28372;56.832;60.658;2024-03-08T07:33:10;6.63;;;3.08;;
42726;SDS011;28372;56.832;60.658;2024-03-08T07:35:44;7.15;;;2.20;;
42726;SDS011;28372;56.832;60.658;2024-03-08T07:38:12;7.13;;;2.35;;
42726;SDS011;28372;56.832;60.658;2024-03-08T07:40:40;5.03;;;2.10;;
42726;SDS011;28372;56.832;60.658;2024-03-08T07:43:12;7.10;;;2.22;;
42726;SDS011;28372;56.832;60.658;2024-03-08T07:45:39;5.00;;;2.13;;
42726;SDS011;28372;56.832;60.658;2024-03-08T07:48:07;6.82;;;2.30;;
42726;SDS011;28372;56.832;60.658;2024-03-08T07:50:37;7.75;;;2.17;;
42726;SDS011;28372;56.832;60.658;2024-03-08T07:53:09;7.65;;;2.80;;
42726;SDS011;28372;56.832;60.658;2024-03-08T07:55:37;6.95;;;2.63;;
42726;SDS011;28372;56.832;60.658;2024-03-08T07:58:10;9.07;;;2.10;;
42726;SDS011;28372;56.832;60.658;2024-03-08T08:00:40;6.93;;;2.00;;
42726;SDS011;28372;56.832;60.658;2024-03-08T08:03:12;5.57;;;2.50;;
42726;SDS011;28372;56.832;60.658;2024-03-08T08:05:44;6.25;;;2.22;;
42726;SDS011;28372;56.832;60.658;2024-03-08T08:08:16;11.25;;;2.67;;
42726;SDS011;28372;56.832;60.658;2024-03-08T08:10:44;7.15;;;2.35;;
42726;SDS011;28372;56.832;60.658;2024-03-08T08:13:11;3.08;;;1.50;;
42726;SDS011;28372;56.832;60.658;2024-03-08T08:15:40;5.85;;;2.30;;
42726;SDS011;28372;56.832;60.658;2024-03-08T08:18:07;12.82;;;2.83;;
42726;SDS011;28372;56.832;60.658;2024-03-08T08:20:37;10.75;;;2.60;;
42726;SDS011;28372;56.832;60.658;2024-03-08T08:23:05;6.57;;;2.85;;
42726;SDS011;28372;56.832;60.658;2024-03-08T08:25:33;6.38;;;2.88;;
42726;SDS011;28372;56.832;60.658;2024-03-08T08:28:02;7.15;;;2.75;;
42726;SDS011;28372;56.832;60.658;2024-03-08T08:30:31;13.20;;;3.47;;
42726;SDS011;28372;56.832;60.658;2024-03-08T08:33:03;8.45;;;2.35;;
42726;SDS011;28372;56.832;60.658;2024-03-08T08:35:33;6.20;;;2.35;;
42726;SDS011;28372;56.832;60.658;2024-03-08T08:38:01;9.40;;;2.55;;
42726;SDS011;28372;56.832;60.658;2024-03-08T08:40:31;8.35;;;2.75;;
42726;SDS011;28372;56.832;60.658;2024-03-08T08:42:59;8.68;;;2.53;;
42726;SDS011;28372;56.832;60.658;2024-03-08T08:45:27;11.43;;;2.97;;
42726;SDS011;28372;56.832;60.658;2024-03-08T08:47:55;7.63;;;2.50;;
42726;SDS011;28372;56.832;60.658;2024-03-08T08:50:22;12.27;;;2.70;;
42726;SDS011;28372;56.832;60.658;2024-03-08T08:52:51;12.40;;;2.58;;
42726;SDS011;28372;56.832;60.658;2024-03-08T08:55:21;7.65;;;2.25;;
42726;SDS011;28372;56.832;60.658;2024-03-08T08:57:53;8.15;;;2.97;;
42726;SDS011;28372;56.832;60.658;2024-03-08T09:00:21;8.77;;;3.38;;
42726;SDS011;28372;56.832;60.658;2024-03-08T09:02:55;18.33;;;2.92;;
42726;SDS011;28372;56.832;60.658;2024-03-08T09:05:25;9.35;;;2.80;;
42726;SDS011;28372;56.832;60.658;2024-03-08T09:07:53;9.95;;;2.80;;
42726;SDS011;28372;56.832;60.658;2024-03-08T09:10:22;9.85;;;2.60;;
42726;SDS011;28372;56.832;60.658;2024-03-08T09:12:56;6.93;;;2.60;;
42726;SDS011;28372;56.832;60.658;2024-03-08T09:15:24;7.55;;;2.38;;
42726;SDS011;28372;56.832;60.658;2024-03-08T09:17:56;6.97;;;2.80;;
42726;SDS011;28372;56.832;60.658;2024-03-08T09:20:24;6.72;;;2.50;;
42726;SDS011;28372;56.832;60.658;2024-03-08T09:22:52;5.15;;;2.58;;
42726;SDS011;28372;56.832;60.658;2024-03-08T09:25:20;6.50;;;3.00;;
42726;SDS011;28372;56.832;60.658;2024-03-08T09:27:48;6.03;;;2.97;;
42726;SDS011;28372;56.832;60.658;2024-03-08T09:30:16;8.40;;;2.63;;
42726;SDS011;28372;56.832;60.658;2024-03-08T09:32:45;5.55;;;2.78;;
42726;SDS011;28372;56.832;60.658;2024-03-08T09:35:13;7.65;;;2.85;;
42726;SDS011;28372;56.832;60.658;2024-03-08T09:37:42;8.73;;;3.03;;
42726;SDS011;28372;56.832;60.658;2024-03-08T09:40:11;6.85;;;3.03;;
42726;SDS011;28372;56.832;60.658;2024-03-08T09:42:45;5.82;;;3.15;;
42726;SDS011;28372;56.832;60.658;2024-03-08T09:45:14;9.60;;;2.70;;
42726;SDS011;28372;56.832;60.658;2024-03-08T09:47:46;6.43;;;2.80;;
42726;SDS011;28372;56.832;60.658;2024-03-08T09:50:21;7.13;;;2.70;;
42726;SDS011;28372;56.832;60.658;2024-03-08T09:52:49;5.30;;;2.88;;
42726;SDS011;28372;56.832;60.658;2024-03-08T09:55:17;5.47;;;3.08;;
42726;SDS011;28372;56.832;60.658;2024-03-08T09:57:51;5.55;;;2.75;;
42726;SDS011;28372;56.832;60.658;2024-03-08T10:00:45;6.43;;;3.00;;
42726;SDS011;28372;56.832;60.658;2024-03-08T10:03:13;7.22;;;2.97;;
42726;SDS011;28372;56.832;60.658;2024-03-08T10:05:44;5.95;;;2.50;;
42726;SDS011;28372;56.832;60.658;2024-03-08T10:08:12;5.95;;;2.70;;
42726;SDS011;28372;56.832;60.658;2024-03-08T10:10:40;6.15;;;2.80;;
42726;SDS011;28372;56.832;60.658;2024-03-08T10:13:09;5.15;;;2.28;;
42726;SDS011;28372;56.832;60.658;2024-03-08T10:15:39;7.85;;;3.00;;
42726;SDS011;28372;56.832;60.658;2024-03-08T10:18:07;7.22;;;3.03;;
42726;SDS011;28372;56.832;60.658;2024-03-08T10:20:37;9.30;;;2.78;;
42726;SDS011;28372;56.832;60.658;2024-03-08T10:23:06;5.60;;;2.90;;
42726;SDS011;28372;56.832;60.658;2024-03-08T10:25:38;4.18;;;2.50;;
42726;SDS011;28372;56.832;60.658;2024-03-08T10:28:07;7.00;;;3.00;;
42726;SDS011;28372;56.832;60.658;2024-03-08T10:30:36;5.43;;;2.40;;
42726;SDS011;28372;56.832;60.658;2024-03-08T10:33:04;7.50;;;2.70;;
42726;SDS011;28372;56.832;60.658;2024-03-08T10:35:34;7.78;;;3.10;;
42726;SDS011;28372;56.832;60.658;2024-03-08T10:38:01;5.78;;;2.83;;
42726;SDS011;28372;56.832;60.658;2024-03-08T10:40:35;9.85;;;3.35;;
42726;SDS011;28372;56.832;60.658;2024-03-08T10:43:08;6.38;;;2.85;;
42726;SDS011;28372;56.832;60.658;2024-03-08T10:45:43;9.00;;;2.53;;
42726;SDS011;28372;56.832;60.658;2024-03-08T10:48:31;8.68;;;2.80;;
42726;SDS011;28372;56.832;60.658;2024-03-08T10:51:05;7.53;;;2.90;;
42726;SDS011;28372;56.832;60.658;2024-03-08T10:53:41;6.55;;;2.70;;
42726;SDS011;28372;56.832;60.658;2024-03-08T10:56:14;4.80;;;2.47;;
42726;SDS011;28372;56.832;60.658;2024-03-08T10:58:43;4.75;;;2.47;;
42726;SDS011;28372;56.832;60.658;2024-03-08T11:01:13;9.38;;;2.88;;
42726;SDS011;28372;56.832;60.658;2024-03-08T11:03:45;6.28;;;3.30;;
42726;SDS011;28372;56.832;60.658;2024-03-08T11:06:41;6.72;;;3.03;;
42726;SDS011;28372;56.832;60.658;2024-03-08T11:09:31;8.52;;;3.30;;
42726;SDS011;28372;56.832;60.658;2024-03-08T11:12:18;9.35;;;2.97;;
42726;SDS011;28372;56.832;60.658;2024-03-08T11:14:48;6.85;;;3.25;;
42726;SDS011;28372;56.832;60.658;2024-03-08T11:17:26;5.57;;;2.53;;
42726;SDS011;28372;56.832;60.658;2024-03-08T11:20:19;5.97;;;3.13;;
42726;SDS011;28372;56.832;60.658;2024-03-08T11:22:55;7.28;;;2.53;;
42726;SDS011;28372;56.832;60.658;2024-03-08T11:25:39;6.72;;;3.00;;
42726;SDS011;28372;56.832;60.658;2024-03-08T11:28:11;6.32;;;2.63;;
42726;SDS011;28372;56.832;60.658;2024-03-08T11:33:30;8.18;;;3.00;;
42726;SDS011;28372;56.832;60.658;2024-03-08T11:36:41;6.00;;;2.47;;
42726;SDS011;28372;56.832;60.658;2024-03-08T11:38:52;5.13;;;2.80;;
42726;SDS011;28372;56.832;60.658;2024-03-08T11:41:22;9.10;;;2.90;;
42726;SDS011;28372;56.832;60.658;2024-03-08T11:44:01;6.50;;;2.67;;
42726;SDS011;28372;56.832;60.658;2024-03-08T11:46:38;8.82;;;3.45;;
42726;SDS011;28372;56.832;60.658;2024-03-08T11:49:13;8.95;;;3.63;;
42726;SDS011;28372;56.832;60.658;2024-03-08T11:51:41;7.18;;;3.00;;
42726;SDS011;28372;56.832;60.658;2024-03-08T11:54:11;6.45;;;2.83;;
42726;SDS011;28372;56.832;60.658;2024-03-08T11:56:42;4.90;;;2.58;;
42726;SDS011;28372;56.832;60.658;2024-03-08T11:59:12;6.55;;;3.30;;
42726;SDS011;28372;56.832;60.658;2024-03-08T12:01:40;7.80;;;2.40;;
42726;SDS011;28372;56.832;60.658;2024-03-08T12:04:11;8.77;;;2.83;;
42726;SDS011;28372;56.832;60.658;2024-03-08T12:06:42;10.48;;;5.55;;
42726;SDS011;28372;56.832;60.658;2024-03-08T12:09:12;8.00;;;3.63;;
42726;SDS011;28372;56.832;60.658;2024-03-08T12:11:40;7.07;;;2.80;;
42726;SDS011;28372;56.832;60.658;2024-03-08T12:14:13;4.43;;;2.13;;
42726;SDS011;28372;56.832;60.658;2024-03-08T12:16:57;10.25;;;3.35;;
42726;SDS011;28372;56.832;60.658;2024-03-08T12:19:35;6.80;;;2.95;;
42726;SDS011;28372;56.832;60.658;2024-03-08T12:22:09;6.10;;;2.80;;
42726;SDS011;28372;56.832;60.658;2024-03-08T12:24:37;9.48;;;3.95;;
42726;SDS011;28372;56.832;60.658;2024-03-08T12:27:17;8.40;;;4.28;;
42726;SDS011;28372;56.832;60.658;2024-03-08T12:29:47;12.77;;;5.88;;
42726;SDS011;28372;56.832;60.658;2024-03-08T12:32:54;4.85;;;2.70;;
42726;SDS011;28372;56.832;60.658;2024-03-08T12:35:26;10.45;;;4.15;;
42726;SDS011;28372;56.832;60.658;2024-03-08T12:37:55;7.28;;;3.75;;
42726;SDS011;28372;56.832;60.658;2024-03-08T12:40:28;6.07;;;2.70;;
42726;SDS011;28372;56.832;60.658;2024-03-08T12:42:59;6.30;;;3.35;;
42726;SDS011;28372;56.832;60.658;2024-03-08T12:45:28;5.13;;;2.70;;
42726;SDS011;28372;56.832;60.658;2024-03-08T12:47:55;9.00;;;3.35;;
42726;SDS011;28372;56.832;60.658;2024-03-08T12:50:23;7.43;;;3.50;;
42726;SDS011;28372;56.832;60.658;2024-03-08T12:52:54;8.40;;;3.70;;
42726;SDS011;28372;56.832;60.658;2024-03-08T12:55:23;9.75;;;4.00;;
42726;SDS011;28372;56.832;60.658;2024-03-08T12:57:50;6.03;;;2.97;;
42726;SDS011;28372;56.832;60.658;2024-03-08T13:00:20;7.63;;;3.13;;
42726;SDS011;28372;56.832;60.658;2024-03-08T13:02:50;6.60;;;2.95;;
42726;SDS011;28372;56.832;60.658;2024-03-08T13:05:18;6.07;;;2.30;;
42726;SDS011;28372;56.832;60.658;2024-03-08T13:07:47;7.28;;;3.13;;
42726;SDS011;28372;56.832;60.658;2024-03-08T13:10:15;8.27;;;2.85;;
42726;SDS011;28372;56.832;60.658;2024-03-08T13:12:44;5.80;;;3.15;;
42726;SDS011;28372;56.832;60.658;2024-03-08T13:15:12;10.02;;;4.82;;
42726;SDS011;28372;56.832;60.658;2024-03-08T13:17:48;6.60;;;3.17;;
42726;SDS011;28372;56.832;60.658;2024-03-08T13:20:35;8.45;;;4.65;;
42726;SDS011;28372;56.832;60.658;2024-03-08T13:23:13;10.88;;;4.13;;
42726;SDS011;28372;56.832;60.658;2024-03-08T13:25:45;6.88;;;3.20;;
42726;SDS011;28372;56.832;60.658;2024-03-08T13:28:14;5.90;;;3.05;;
42726;SDS011;28372;56.832;60.658;2024-03-08T13:30:44;8.90;;;3.60;;
42726;SDS011;28372;56.832;60.658;2024-03-08T13:33:11;6.93;;;2.60;;
42726;SDS011;28372;56.832;60.658;2024-03-08T13:35:40;5.43;;;2.60;;
42726;SDS011;28372;56.832;60.658;2024-03-08T13:38:08;5.97;;;2.92;;
42726;SDS011;28372;56.832;60.658;2024-03-08T13:40:36;6.70;;;3.40;;
42726;SDS011;28372;56.832;60.658;2024-03-08T13:43:04;5.30;;;3.20;;
42726;SDS011;28372;56.832;60.658;2024-03-08T13:45:32;13.77;;;5.20;;
42726;SDS011;28372;56.832;60.658;2024-03-08T13:48:00;24.45;;;8.27;;
42726;SDS011;28372;56.832;60.658;2024-03-08T13:50:32;13.77;;;4.80;;
42726;SDS011;28372;56.832;60.658;2024-03-08T13:53:00;11.77;;;5.82;;
42726;SDS011;28372;56.832;60.658;2024-03-08T13:55:28;14.50;;;5.70;;
42726;SDS011;28372;56.832;60.658;2024-03-08T13:57:56;7.05;;;3.47;;
42726;SDS011;28372;56.832;60.658;2024-03-08T14:00:25;8.63;;;4.35;;
42726;SDS011;28372;56.832;60.658;2024-03-08T14:02:55;7.10;;;3.25;;
42726;SDS011;28372;56.832;60.658;2024-03-08T14:05:23;6.07;;;3.17;;
42726;SDS011;28372;56.832;60.658;2024-03-08T14:07:53;5.07;;;3.00;;
42726;SDS011;28372;56.832;60.658;2024-03-08T14:10:23;8.52;;;4.40;;
42726;SDS011;28372;56.832;60.658;2024-03-08T14:12:50;7.50;;;3.72;;
42726;SDS011;28372;56.832;60.658;2024-03-08T14:15:18;5.38;;;3.22;;
42726;SDS011;28372;56.832;60.658;2024-03-08T14:17:52;11.77;;;6.15;;
42726;SDS011;28372;56.832;60.658;2024-03-08T14:20:26;10.52;;;5.07;;
42726;SDS011;28372;56.832;60.658;2024-03-08T14:22:57;8.55;;;3.90;;
42726;SDS011;28372;56.832;60.658;2024-03-08T14:25:34;7.90;;;3.53;;
42726;SDS011;28372;56.832;60.658;2024-03-08T14:28:02;8.65;;;4.07;;
42726;SDS011;28372;56.832;60.658;2024-03-08T14:30:34;6.90;;;3.40;;
42726;SDS011;28372;56.832;60.658;2024-03-08T14:33:03;6.25;;;3.08;;
42726;SDS011;28372;56.832;60.658;2024-03-08T14:35:33;9.20;;;3.35;;
42726;SDS011;28372;56.832;60.658;2024-03-08T14:38:01;6.50;;;2.80;;
42726;SDS011;28372;56.832;60.658;2024-03-08T14:40:30;6.60;;;3.40;;
42726;SDS011;28372;56.832;60.658;2024-03-08T14:43:28;7.38;;;3.22;;
42726;SDS011;28372;56.832;60.658;2024-03-08T14:45:56;8.02;;;3.40;;
42726;SDS011;28372;56.832;60.658;2024-03-08T14:48:24;7.57;;;3.20;;
42726;SDS011;28372;56.832;60.658;2024-03-08T14:50:52;6.32;;;3.40;;
42726;SDS011;28372;56.832;60.658;2024-03-08T14:53:19;8.55;;;3.50;;